Terminal Aerodrome Forecast
Issued by NWS

Home | Current Version | Previous Version | Text Only | Print | Product List | Glossary On
Versions: 1 2 3 4 5 6 7 8 9 10 11 12 13 14 15 16 17 18 19 20 21
000
FTUS43 KMQT 231720
TAFSAW
TAF
KSAW 231720Z 2318/2418 23010KT P6SM FEW250
     FM232300 22006KT P6SM FEW200
     FM240500 20003KT 5SM BR SCT200
     FM240600 19003KT 3SM BR SCT200
     FM240900 20004KT P6SM SCT200
     FM241700 20008KT P6SM FEW200=

USA.gov is the U.S. government's official web portal to all federal, state and local government web resources and services.